Time;durP1;ratioP1;P1;durP2;ratioP2;P2;SDS_P1;SDS_P2;PMS_P1;PMS_P2;Temp;Humidity;BMP_temperature;BMP_pressure;BME280_temperature;BME280_humidity;BME280_pressure;Samples;Min_cycle;Max_cycle;Signal;HPM_P1;HPM_P2
2022/12/27 00:01:36;;;;;;;7.90;3.30;;;;;;;;;;5016551;28;20186;-78
2022/12/27 00:04:02;;;;;;;8.00;3.30;;;;;;;;;;5021791;28;20212;-79
2022/12/27 00:06:27;;;;;;;11.10;3.17;;;;;;;;;;5022019;28;20209;-78
2022/12/27 00:08:53;;;;;;;7.23;3.73;;;;;;;;;;5026582;28;20178;-80
2022/12/27 00:11:20;;;;;;;10.63;3.47;;;;;;;;;;5026565;28;20212;-78
2022/12/27 00:13:45;;;;;;;7.17;3.80;;;;;;;;;;5037360;22;20532;-73
2022/12/27 00:16:12;;;;;;;9.17;3.50;;;;;;;;;;5020985;28;20201;-73
2022/12/27 00:18:38;;;;;;;11.87;4.00;;;;;;;;;;5019510;28;20186;-73
2022/12/27 00:21:04;;;;;;;6.00;2.50;;;;;;;;;;5018400;28;20182;-73
2022/12/27 00:23:31;;;;;;;11.03;4.10;;;;;;;;;;5023286;28;20647;-73
2022/12/27 00:26:03;;;;;;;6.73;3.47;;;;;;;;;;5027055;28;20202;-73
2022/12/27 00:28:30;;;;;;;9.13;3.80;;;;;;;;;;5023489;28;20170;-73
2022/12/27 00:30:55;;;;;;;6.93;2.87;;;;;;;;;;5020339;28;20174;-73
2022/12/27 00:33:21;;;;;;;10.93;3.03;;;;;;;;;;5019322;28;20186;-73
2022/12/27 00:35:46;;;;;;;16.00;3.87;;;;;;;;;;5019877;28;20175;-73
2022/12/27 00:38:11;;;;;;;6.53;3.00;;;;;;;;;;5016400;28;20186;-73
2022/12/27 00:40:40;;;;;;;8.23;3.67;;;;;;;;;;5017938;28;21894;-73
2022/12/27 00:43:05;;;;;;;7.93;3.43;;;;;;;;;;5018967;28;20182;-73
2022/12/27 00:45:30;;;;;;;7.60;3.07;;;;;;;;;;5018824;28;20206;-73
2022/12/27 00:47:55;;;;;;;9.40;4.20;;;;;;;;;;5018899;28;20181;-73
2022/12/27 00:50:21;;;;;;;7.77;3.00;;;;;;;;;;5018663;28;20187;-73
2022/12/27 00:52:46;;;;;;;10.00;3.93;;;;;;;;;;5019143;28;20177;-73
2022/12/27 00:55:11;;;;;;;8.53;3.57;;;;;;;;;;5022194;28;20224;-73
2022/12/27 00:57:36;;;;;;;6.97;3.47;;;;;;;;;;5017861;28;20190;-73
2022/12/27 01:00:03;;;;;;;12.97;4.33;;;;;;;;;;5026672;28;20664;-73
2022/12/27 01:02:28;;;;;;;8.27;2.90;;;;;;;;;;5032928;28;20182;-74
2022/12/27 01:04:53;;;;;;;10.07;3.27;;;;;;;;;;5034997;28;20272;-73
2022/12/27 01:07:19;;;;;;;7.53;3.40;;;;;;;;;;5034007;28;20676;-73
2022/12/27 01:09:44;;;;;;;8.90;3.23;;;;;;;;;;5032796;28;20240;-73
2022/12/27 01:12:09;;;;;;;10.83;3.60;;;;;;;;;;5031708;28;20624;-73
2022/12/27 01:14:34;;;;;;;9.10;3.53;;;;;;;;;;5031703;28;20206;-73
2022/12/27 01:17:00;;;;;;;12.40;3.20;;;;;;;;;;5021721;28;20300;-73
2022/12/27 01:19:25;;;;;;;9.03;3.77;;;;;;;;;;5022995;28;20194;-73
2022/12/27 01:21:50;;;;;;;8.73;3.30;;;;;;;;;;5022543;28;20182;-73
2022/12/27 01:24:15;;;;;;;11.83;3.60;;;;;;;;;;5021629;28;20293;-73
2022/12/27 01:26:40;;;;;;;7.37;3.30;;;;;;;;;;5028511;28;20698;-73
2022/12/27 01:29:05;;;;;;;7.73;4.53;;;;;;;;;;5023438;28;20309;-73
2022/12/27 01:31:31;;;;;;;11.87;3.70;;;;;;;;;;5021322;28;20194;-73
2022/12/27 01:33:57;;;;;;;13.47;4.80;;;;;;;;;;5021035;28;20191;-73
2022/12/27 01:36:23;;;;;;;10.80;3.83;;;;;;;;;;5018144;28;20194;-72
2022/12/27 01:38:49;;;;;;;7.57;3.43;;;;;;;;;;5019824;28;20209;-73
2022/12/27 01:44:00;;;;;;;7.93;3.30;;;;;;;;;;5024220;28;20713;-73
2022/12/27 01:46:25;;;;;;;6.27;2.97;;;;;;;;;;5026949;28;20285;-73
2022/12/27 01:48:50;;;;;;;7.27;3.63;;;;;;;;;;5028845;28;20604;-73
2022/12/27 01:51:16;;;;;;;7.87;3.17;;;;;;;;;;5029289;28;20178;-72
2022/12/27 01:53:44;;;;;;;8.60;2.73;;;;;;;;;;5024951;28;20218;-72
2022/12/27 01:56:15;;;;;;;6.00;3.10;;;;;;;;;;5031645;28;20209;-72
2022/12/27 01:58:45;;;;;;;6.00;3.10;;;;;;;;;;5028757;28;20186;-72
2022/12/27 02:01:19;;;;;;;7.80;2.97;;;;;;;;;;5031807;28;20709;-72
2022/12/27 02:03:47;;;;;;;9.33;3.00;;;;;;;;;;5020851;28;20206;-72
2022/12/27 02:06:13;;;;;;;13.87;3.73;;;;;;;;;;5022614;28;20735;-72
2022/12/27 02:08:55;;;;;;;7.97;2.67;;;;;;;;;;5020977;28;20187;-72
2022/12/27 02:11:49;;;;;;;8.17;2.70;;;;;;;;;;5017982;28;20183;-72
2022/12/27 02:14:07;;;;;;;5.97;2.40;;;;;;;;;;5022068;28;20289;-72
2022/12/27 02:16:32;;;;;;;17.57;7.10;;;;;;;;;;5019929;28;20265;-72
2022/12/27 02:18:57;;;;;;;6.93;3.10;;;;;;;;;;5018784;28;20266;-73
2022/12/27 02:21:32;;;;;;;8.80;2.27;;;;;;;;;;5021601;28;20652;-72
2022/12/27 02:24:03;;;;;;;7.23;3.00;;;;;;;;;;5021433;28;20208;-72
2022/12/27 02:26:36;;;;;;;9.17;2.70;;;;;;;;;;5023565;28;20202;-72
2022/12/27 02:29:20;;;;;;;9.87;2.90;;;;;;;;;;5020640;28;20182;-72
2022/12/27 02:31:52;;;;;;;13.10;4.00;;;;;;;;;;5021621;28;20206;-72
2022/12/27 02:34:22;;;;;;;5.77;2.27;;;;;;;;;;5020186;28;20297;-72
2022/12/27 02:36:48;;;;;;;4.20;2.77;;;;;;;;;;5020473;28;20641;-72
2022/12/27 02:39:14;;;;;;;9.43;2.63;;;;;;;;;;5020715;28;20210;-72
2022/12/27 02:53:04;;;;;;;7.20;2.13;;;;;;;;;;5023745;28;20682;-74
2022/12/27 02:55:38;;;;;;;10.27;2.67;;;;;;;;;;5019147;28;20231;-72
2022/12/27 02:58:06;;;;;;;7.80;2.50;;;;;;;;;;5026712;28;20245;-74
2022/12/27 03:03:45;;;;;;;7.07;2.13;;;;;;;;;;5027496;28;20394;-72
2022/12/27 03:06:38;;;;;;;13.43;4.23;;;;;;;;;;5031557;28;20245;-72
2022/12/27 03:18:01;;;;;;;9.87;2.87;;;;;;;;;;5016221;28;20660;-73
2022/12/27 03:25:56;;;;;;;13.47;3.10;;;;;;;;;;5019125;28;20206;-73
2022/12/27 03:34:03;;;;;;;8.93;1.87;;;;;;;;;;5024018;28;20679;-73
2022/12/27 03:39:30;;;;;;;5.57;2.70;;;;;;;;;;5020381;28;20189;-73
2022/12/27 03:44:59;;;;;;;7.60;2.17;;;;;;;;;;5019668;28;20220;-73
2022/12/27 03:47:47;;;;;;;12.20;2.60;;;;;;;;;;5017630;28;20182;-73
2022/12/27 03:50:21;;;;;;;12.23;2.93;;;;;;;;;;5017189;28;20181;-74
2022/12/27 03:52:49;;;;;;;12.57;4.80;;;;;;;;;;5020831;28;20182;-73
2022/12/27 03:55:16;;;;;;;8.87;2.30;;;;;;;;;;5037512;28;20213;-73
2022/12/27 03:57:41;;;;;;;8.73;2.60;;;;;;;;;;5035185;28;20594;-73
2022/12/27 04:00:07;;;;;;;7.90;2.33;;;;;;;;;;5020583;28;20179;-73
2022/12/27 04:02:32;;;;;;;13.03;2.50;;;;;;;;;;5026931;28;20195;-73
2022/12/27 04:04:58;;;;;;;8.30;2.57;;;;;;;;;;5020755;28;20312;-73
2022/12/27 04:07:23;;;;;;;12.67;3.40;;;;;;;;;;5026553;28;20196;-73
2022/12/27 04:37:09;;;;;;;9.40;2.73;;;;;;;;;;5032515;28;20280;-73
2022/12/27 04:39:35;;;;;;;8.67;2.40;;;;;;;;;;5030266;28;20652;-73
2022/12/27 04:56:02;;;;;;;11.87;3.50;;;;;;;;;;5030286;28;20240;-73
2022/12/27 04:58:28;;;;;;;8.37;3.97;;;;;;;;;;5033691;28;20178;-73
2022/12/27 05:03:38;;;;;;;8.47;2.97;;;;;;;;;;5034480;28;20224;-73
2022/12/27 05:06:03;;;;;;;4.20;2.50;;;;;;;;;;5033902;28;20288;-73
2022/12/27 05:14:00;;;;;;;13.67;4.23;;;;;;;;;;5029212;28;20217;-73
2022/12/27 05:16:35;;;;;;;6.97;2.20;;;;;;;;;;5034696;28;20212;-73
2022/12/27 05:19:01;;;;;;;13.30;4.70;;;;;;;;;;5034616;28;20257;-73
2022/12/27 05:21:26;;;;;;;10.23;2.70;;;;;;;;;;5029034;28;20269;-73
2022/12/27 05:26:37;;;;;;;9.90;3.10;;;;;;;;;;5028740;28;20584;-73
2022/12/27 05:29:02;;;;;;;7.37;2.57;;;;;;;;;;5032698;28;20171;-73
2022/12/27 05:31:28;;;;;;;9.13;2.47;;;;;;;;;;5031153;28;20209;-73
2022/12/27 05:33:53;;;;;;;3.87;2.60;;;;;;;;;;5029962;28;20198;-73
2022/12/27 05:36:19;;;;;;;5.83;2.80;;;;;;;;;;5028041;28;20202;-73
2022/12/27 05:38:44;;;;;;;10.43;2.77;;;;;;;;;;5029686;28;20206;-73
2022/12/27 05:41:09;;;;;;;11.33;3.20;;;;;;;;;;5029318;28;20194;-73
2022/12/27 05:43:35;;;;;;;10.67;2.23;;;;;;;;;;5024675;28;20178;-73
2022/12/27 05:46:06;;;;;;;9.50;3.07;;;;;;;;;;5030160;28;20205;-73
2022/12/27 05:48:32;;;;;;;10.13;2.47;;;;;;;;;;5027014;28;20174;-73
2022/12/27 05:50:57;;;;;;;9.93;2.40;;;;;;;;;;5028163;28;20715;-73
2022/12/27 05:53:22;;;;;;;5.57;1.87;;;;;;;;;;5026518;28;20643;-73
2022/12/27 05:55:54;;;;;;;7.83;1.97;;;;;;;;;;5024245;28;20182;-73
2022/12/27 05:58:19;;;;;;;5.60;1.80;;;;;;;;;;5021094;28;20186;-73
2022/12/27 06:00:44;;;;;;;9.57;2.93;;;;;;;;;;5025084;28;20536;-73
2022/12/27 06:03:10;;;;;;;7.23;2.50;;;;;;;;;;5027624;28;20596;-73
2022/12/27 06:05:35;;;;;;;10.83;2.63;;;;;;;;;;5022239;28;20198;-73
2022/12/27 06:08:00;;;;;;;7.60;2.37;;;;;;;;;;5022028;28;20186;-73
2022/12/27 06:10:25;;;;;;;8.33;1.67;;;;;;;;;;5026734;28;20182;-73
2022/12/27 06:12:50;;;;;;;13.53;2.23;;;;;;;;;;5025617;28;20660;-73
2022/12/27 06:15:16;;;;;;;10.50;2.47;;;;;;;;;;5016872;22;20251;-82
2022/12/27 06:17:42;;;;;;;8.63;3.43;;;;;;;;;;5000174;28;20201;-79
2022/12/27 06:20:08;;;;;;;5.93;2.13;;;;;;;;;;5002209;28;20244;-79
2022/12/27 06:22:33;;;;;;;9.30;2.43;;;;;;;;;;4995910;28;20619;-79
2022/12/27 06:24:58;;;;;;;11.93;2.00;;;;;;;;;;4995685;28;20203;-79
2022/12/27 06:27:24;;;;;;;7.07;2.07;;;;;;;;;;4994463;28;20646;-79
2022/12/27 06:29:49;;;;;;;6.13;1.80;;;;;;;;;;4997533;28;20228;-79
2022/12/27 06:32:16;;;;;;;12.20;2.30;;;;;;;;;;4995712;28;20199;-81
2022/12/27 06:34:41;;;;;;;12.43;2.67;;;;;;;;;;4996298;28;20202;-80
2022/12/27 06:37:07;;;;;;;9.50;2.50;;;;;;;;;;4996519;28;20266;-79
2022/12/27 06:39:32;;;;;;;8.40;2.70;;;;;;;;;;4995137;28;20684;-79
2022/12/27 06:41:57;;;;;;;8.13;3.47;;;;;;;;;;4991745;28;20171;-79
2022/12/27 06:44:22;;;;;;;9.57;3.17;;;;;;;;;;4993146;28;20208;-79
2022/12/27 06:46:47;;;;;;;8.33;2.13;;;;;;;;;;4992293;28;20207;-79
2022/12/27 06:49:13;;;;;;;9.00;2.53;;;;;;;;;;4992269;28;20176;-82
2022/12/27 06:51:38;;;;;;;9.83;3.20;;;;;;;;;;4994632;28;20236;-82
2022/12/27 06:54:03;;;;;;;9.50;2.97;;;;;;;;;;4993855;28;20238;-81
2022/12/27 06:56:28;;;;;;;9.60;2.10;;;;;;;;;;5000659;28;20176;-81
2022/12/27 06:58:54;;;;;;;13.97;2.83;;;;;;;;;;5012192;28;20483;-81
2022/12/27 07:01:20;;;;;;;15.37;2.63;;;;;;;;;;4988912;28;20180;-81
2022/12/27 07:03:49;;;;;;;12.23;4.03;;;;;;;;;;4998553;28;20184;-81
2022/12/27 07:06:14;;;;;;;9.30;2.63;;;;;;;;;;4987794;28;20263;-81
2022/12/27 07:08:40;;;;;;;9.87;2.10;;;;;;;;;;4999172;28;20552;-80
2022/12/27 07:11:07;;;;;;;8.53;2.40;;;;;;;;;;4996814;28;20184;-80
2022/12/27 07:13:33;;;;;;;10.47;2.30;;;;;;;;;;4996272;28;20207;-80
2022/12/27 07:15:58;;;;;;;9.80;2.37;;;;;;;;;;4992786;28;20216;-79
2022/12/27 07:18:23;;;;;;;10.10;1.90;;;;;;;;;;4997134;28;20251;-80
2022/12/27 07:20:49;;;;;;;9.83;2.30;;;;;;;;;;4999835;28;20171;-80
2022/12/27 07:23:14;;;;;;;6.20;2.30;;;;;;;;;;5004299;28;20199;-81
2022/12/27 07:25:39;;;;;;;9.67;2.50;;;;;;;;;;5003431;28;20222;-81
2022/12/27 07:28:04;;;;;;;8.83;2.73;;;;;;;;;;4995506;28;20179;-81
2022/12/27 07:30:30;;;;;;;13.97;3.43;;;;;;;;;;4996432;28;20184;-81
2022/12/27 07:32:55;;;;;;;9.97;2.20;;;;;;;;;;4994775;28;20191;-80
2022/12/27 07:35:20;;;;;;;5.17;2.20;;;;;;;;;;4995101;28;20684;-80
2022/12/27 07:37:45;;;;;;;9.23;2.33;;;;;;;;;;4994347;28;20172;-80
2022/12/27 07:40:11;;;;;;;8.57;3.10;;;;;;;;;;4993340;28;20940;-80
2022/12/27 07:42:36;;;;;;;9.83;2.50;;;;;;;;;;4993431;28;20572;-82
2022/12/27 07:45:01;;;;;;;10.53;2.70;;;;;;;;;;4993016;28;20207;-80
2022/12/27 07:47:27;;;;;;;11.67;3.10;;;;;;;;;;4992172;28;20172;-80
2022/12/27 07:49:52;;;;;;;10.30;3.77;;;;;;;;;;4992835;28;20180;-80
2022/12/27 07:52:17;;;;;;;12.37;3.63;;;;;;;;;;4993289;28;20195;-80
2022/12/27 07:54:42;;;;;;;11.27;4.13;;;;;;;;;;4989089;28;20539;-80
2022/12/27 07:57:07;;;;;;;12.27;3.77;;;;;;;;;;4993652;28;20187;-82
2022/12/27 07:59:33;;;;;;;17.07;5.37;;;;;;;;;;4991587;28;20227;-79
2022/12/27 08:02:04;;;;;;;12.63;4.13;;;;;;;;;;5001854;28;20431;-80
2022/12/27 08:04:29;;;;;;;10.07;4.33;;;;;;;;;;4998950;28;20264;-80
2022/12/27 08:07:05;;;;;;;14.80;5.37;;;;;;;;;;4997169;28;20290;-80
2022/12/27 08:09:32;;;;;;;9.67;4.23;;;;;;;;;;4995344;28;20183;-81
2022/12/27 08:11:57;;;;;;;12.97;4.63;;;;;;;;;;4997684;28;20238;-80
2022/12/27 08:14:23;;;;;;;12.87;4.90;;;;;;;;;;4998323;28;20652;-80
2022/12/27 08:16:48;;;;;;;16.70;5.07;;;;;;;;;;4996692;28;20607;-80
2022/12/27 08:19:13;;;;;;;16.43;4.83;;;;;;;;;;4996540;28;20203;-80
2022/12/27 08:21:38;;;;;;;10.37;4.77;;;;;;;;;;4994950;28;20188;-80
2022/12/27 08:24:04;;;;;;;10.77;5.27;;;;;;;;;;4994945;28;20206;-80
2022/12/27 08:26:29;;;;;;;15.70;6.50;;;;;;;;;;4995047;28;20199;-79
2022/12/27 08:28:54;;;;;;;9.93;4.43;;;;;;;;;;4998744;28;20562;-80
2022/12/27 08:31:19;;;;;;;8.40;4.93;;;;;;;;;;4995302;28;20596;-80
2022/12/27 08:33:45;;;;;;;10.13;4.87;;;;;;;;;;4993483;28;20191;-80
2022/12/27 08:36:11;;;;;;;13.80;5.30;;;;;;;;;;4999275;28;20561;-81
2022/12/27 08:38:36;;;;;;;11.33;5.50;;;;;;;;;;4995146;28;20248;-82
2022/12/27 08:41:01;;;;;;;14.73;5.83;;;;;;;;;;4994104;28;20564;-79
2022/12/27 08:43:28;;;;;;;9.33;5.97;;;;;;;;;;4993659;28;20186;-79
2022/12/27 08:45:58;;;;;;;19.27;7.17;;;;;;;;;;4994731;28;20230;-80
2022/12/27 08:48:23;;;;;;;17.93;5.73;;;;;;;;;;4993953;28;20180;-79
2022/12/27 08:50:48;;;;;;;15.47;6.53;;;;;;;;;;4995244;28;20175;-79
2022/12/27 08:53:14;;;;;;;16.83;6.37;;;;;;;;;;4999414;28;20187;-80
2022/12/27 08:55:39;;;;;;;17.03;6.70;;;;;;;;;;4995773;28;20211;-80
2022/12/27 08:58:05;;;;;;;11.80;5.67;;;;;;;;;;4995623;28;20183;-80
2022/12/27 09:00:30;;;;;;;15.97;5.83;;;;;;;;;;4996768;28;20182;-80
2022/12/27 09:02:56;;;;;;;14.57;6.50;;;;;;;;;;4991246;28;20210;-80
2022/12/27 09:05:22;;;;;;;16.87;6.83;;;;;;;;;;4995134;28;20203;-80
2022/12/27 09:07:47;;;;;;;17.47;6.77;;;;;;;;;;4993981;28;20187;-80
2022/12/27 09:10:12;;;;;;;16.17;6.50;;;;;;;;;;4995589;28;20655;-80
2022/12/27 09:12:38;;;;;;;12.87;5.80;;;;;;;;;;4992770;28;20190;-80
2022/12/27 09:15:03;;;;;;;11.60;6.07;;;;;;;;;;4996366;28;20216;-80
2022/12/27 09:17:28;;;;;;;17.17;6.70;;;;;;;;;;4994712;28;20176;-80
2022/12/27 09:19:54;;;;;;;12.73;6.50;;;;;;;;;;4995322;28;20557;-80
2022/12/27 09:22:19;;;;;;;14.67;6.67;;;;;;;;;;4993471;28;20214;-80
2022/12/27 09:24:44;;;;;;;16.60;6.83;;;;;;;;;;4992382;28;20893;-80
2022/12/27 09:27:09;;;;;;;12.13;6.77;;;;;;;;;;4997210;28;20294;-80
2022/12/27 09:29:34;;;;;;;14.57;7.57;;;;;;;;;;4989053;28;20287;-80
2022/12/27 09:32:00;;;;;;;13.23;7.80;;;;;;;;;;4987489;28;20172;-80
2022/12/27 09:34:25;;;;;;;15.87;7.17;;;;;;;;;;4994070;28;20195;-80
2022/12/27 09:36:51;;;;;;;11.63;6.87;;;;;;;;;;4992723;28;20183;-80
2022/12/27 09:39:16;;;;;;;14.77;7.13;;;;;;;;;;4993668;28;20274;-81
2022/12/27 09:41:56;;;;;;;9.90;6.37;;;;;;;;;;4990999;28;20597;-80
2022/12/27 09:44:37;;;;;;;12.23;5.70;;;;;;;;;;4990978;28;20208;-80
2022/12/27 09:47:08;;;;;;;13.50;5.17;;;;;;;;;;5003818;28;20199;-80
2022/12/27 09:49:54;;;;;;;13.07;5.67;;;;;;;;;;4987434;28;20175;-80
2022/12/27 09:52:25;;;;;;;12.53;4.37;;;;;;;;;;5006737;28;20214;-80
2022/12/27 09:54:53;;;;;;;11.03;5.07;;;;;;;;;;4989610;28;20208;-80
2022/12/27 09:57:22;;;;;;;12.20;5.30;;;;;;;;;;4991639;28;20190;-80
2022/12/27 09:59:48;;;;;;;9.83;4.97;;;;;;;;;;4995441;28;20191;-80
2022/12/27 10:02:19;;;;;;;10.17;4.97;;;;;;;;;;4999534;28;20207;-80
2022/12/27 10:04:44;;;;;;;13.47;4.93;;;;;;;;;;5001787;28;20192;-80
2022/12/27 10:07:24;;;;;;;8.40;4.93;;;;;;;;;;5015074;28;20668;-80
2022/12/27 10:09:50;;;;;;;13.67;4.60;;;;;;;;;;5000395;28;20176;-80
2022/12/27 10:12:47;;;;;;;13.67;6.03;;;;;;;;;;5013996;28;20242;-80
2022/12/27 10:15:15;;;;;;;11.37;5.50;;;;;;;;;;4973277;28;20223;-80
2022/12/27 10:17:53;;;;;;;10.37;4.73;;;;;;;;;;4990870;28;20223;-80
2022/12/27 10:20:29;;;;;;;6.63;4.67;;;;;;;;;;4993112;28;20184;-80
2022/12/27 10:22:59;;;;;;;10.13;4.60;;;;;;;;;;4996079;28;20203;-80
2022/12/27 10:25:25;;;;;;;9.70;4.83;;;;;;;;;;4988517;28;20206;-80
2022/12/27 10:27:54;;;;;;;6.37;3.97;;;;;;;;;;5001233;28;20183;-80
2022/12/27 10:30:20;;;;;;;5.40;3.50;;;;;;;;;;5003968;28;20206;-80
2022/12/27 10:32:46;;;;;;;10.03;4.07;;;;;;;;;;5003319;28;20697;-79
2022/12/27 10:35:17;;;;;;;13.77;4.77;;;;;;;;;;4989836;28;20204;-80
2022/12/27 10:37:42;;;;;;;7.00;4.13;;;;;;;;;;4995219;28;20176;-80
2022/12/27 10:40:14;;;;;;;7.17;3.73;;;;;;;;;;4993455;28;20203;-79
2022/12/27 10:42:43;;;;;;;9.40;3.97;;;;;;;;;;4989419;28;20168;-80
2022/12/27 10:45:27;;;;;;;10.30;3.87;;;;;;;;;;4997038;28;20191;-79
2022/12/27 10:47:57;;;;;;;11.93;4.73;;;;;;;;;;5003435;28;20497;-79
2022/12/27 10:50:24;;;;;;;10.57;4.50;;;;;;;;;;4995981;28;20650;-80
2022/12/27 10:52:50;;;;;;;6.60;3.43;;;;;;;;;;5000240;28;20186;-79
2022/12/27 10:55:35;;;;;;;8.47;3.70;;;;;;;;;;4995805;28;20567;-79
2022/12/27 10:58:19;;;;;;;7.80;3.67;;;;;;;;;;4992835;28;20226;-79
2022/12/27 11:00:54;;;;;;;9.33;4.43;;;;;;;;;;4985742;28;20234;-79
2022/12/27 11:03:19;;;;;;;13.37;4.40;;;;;;;;;;4992020;28;20186;-79
2022/12/27 11:05:57;;;;;;;10.70;3.87;;;;;;;;;;4984341;28;20633;-80
2022/12/27 11:08:23;;;;;;;11.37;4.43;;;;;;;;;;4985671;28;20249;-80
2022/12/27 11:10:48;;;;;;;6.37;3.53;;;;;;;;;;4983015;28;20180;-80
2022/12/27 11:13:17;;;;;;;7.20;4.97;;;;;;;;;;4984181;28;20187;-80
2022/12/27 11:15:43;;;;;;;10.70;4.97;;;;;;;;;;4984642;28;20207;-79
2022/12/27 11:18:09;;;;;;;7.70;4.17;;;;;;;;;;4984252;28;20190;-79
2022/12/27 11:20:35;;;;;;;11.53;4.10;;;;;;;;;;4986828;28;20255;-79
2022/12/27 11:23:00;;;;;;;11.27;4.60;;;;;;;;;;4983570;28;20184;-79
2022/12/27 11:25:26;;;;;;;9.90;4.00;;;;;;;;;;4982387;28;20203;-79
2022/12/27 11:27:53;;;;;;;10.23;5.27;;;;;;;;;;4983966;28;20180;-79
2022/12/27 11:30:20;;;;;;;9.53;4.00;;;;;;;;;;4990076;28;20175;-80
2022/12/27 11:32:45;;;;;;;6.37;3.33;;;;;;;;;;4993431;28;20670;-79
2022/12/27 11:35:15;;;;;;;7.30;3.30;;;;;;;;;;5005508;28;20206;-80
2022/12/27 11:37:40;;;;;;;8.50;4.80;;;;;;;;;;4988025;28;20180;-80
2022/12/27 11:40:26;;;;;;;6.03;3.80;;;;;;;;;;4992866;28;20646;-79
2022/12/27 11:43:12;;;;;;;6.33;3.87;;;;;;;;;;4993969;28;20227;-80
2022/12/27 11:45:40;;;;;;;11.93;4.50;;;;;;;;;;4993712;28;20784;-79
2022/12/27 11:48:27;;;;;;;8.53;4.23;;;;;;;;;;4992106;28;20195;-79
2022/12/27 11:50:55;;;;;;;9.20;3.33;;;;;;;;;;4990114;28;20241;-79
2022/12/27 11:53:49;;;;;;;8.37;3.73;;;;;;;;;;4987051;28;20191;-79
2022/12/27 11:56:21;;;;;;;6.30;3.63;;;;;;;;;;4993983;28;20620;-78
2022/12/27 11:58:58;;;;;;;6.70;3.33;;;;;;;;;;4995594;28;20179;-80
2022/12/27 12:01:36;;;;;;;6.90;3.37;;;;;;;;;;4986400;28;20193;-78
2022/12/27 12:04:12;;;;;;;8.33;3.63;;;;;;;;;;4991974;28;22532;-79
2022/12/27 12:06:37;;;;;;;6.93;3.47;;;;;;;;;;4990922;28;20223;-79
2022/12/27 12:09:22;;;;;;;8.37;4.00;;;;;;;;;;5007907;28;20194;-79
2022/12/27 12:11:47;;;;;;;8.63;3.50;;;;;;;;;;4990182;28;20272;-78
2022/12/27 12:14:31;;;;;;;9.30;5.07;;;;;;;;;;5007950;22;20199;-71
2022/12/27 12:17:06;;;;;;;7.13;3.77;;;;;;;;;;5030766;28;20190;-71
2022/12/27 12:19:38;;;;;;;11.17;3.77;;;;;;;;;;5029945;28;20181;-73
2022/12/27 12:22:11;;;;;;;5.27;3.90;;;;;;;;;;5026962;28;20178;-71
2022/12/27 12:24:42;;;;;;;5.43;3.73;;;;;;;;;;5029571;28;20206;-71
2022/12/27 12:27:19;;;;;;;10.53;4.63;;;;;;;;;;5025546;28;20288;-71
2022/12/27 12:29:44;;;;;;;8.63;4.30;;;;;;;;;;5028790;28;20619;-71
2022/12/27 12:32:15;;;;;;;5.70;3.90;;;;;;;;;;5030262;28;20270;-71
2022/12/27 12:34:56;;;;;;;7.30;3.53;;;;;;;;;;5018834;28;20332;-72
2022/12/27 12:37:39;;;;;;;7.77;3.80;;;;;;;;;;5028149;28;20186;-72
2022/12/27 12:40:07;;;;;;;9.17;3.83;;;;;;;;;;5029360;28;20614;-72
2022/12/27 12:42:39;;;;;;;6.73;3.93;;;;;;;;;;5026828;28;20190;-71
2022/12/27 12:45:04;;;;;;;9.27;3.73;;;;;;;;;;5028201;28;20203;-71
2022/12/27 12:47:39;;;;;;;5.90;3.33;;;;;;;;;;5030842;28;20198;-72
2022/12/27 12:50:10;;;;;;;13.43;4.17;;;;;;;;;;5027717;28;20601;-72
2022/12/27 12:52:51;;;;;;;7.90;4.00;;;;;;;;;;5023725;28;20186;-72
2022/12/27 12:55:34;;;;;;;5.90;3.50;;;;;;;;;;5029879;28;20779;-71
2022/12/27 12:58:02;;;;;;;7.73;3.77;;;;;;;;;;5033221;28;20174;-72
2022/12/27 13:00:32;;;;;;;8.87;3.97;;;;;;;;;;5027568;28;20198;-72
2022/12/27 13:03:21;;;;;;;6.20;3.47;;;;;;;;;;5031602;28;20258;-72
2022/12/27 13:05:50;;;;;;;8.37;4.03;;;;;;;;;;5020557;28;20202;-71
2022/12/27 13:08:34;;;;;;;9.60;4.20;;;;;;;;;;5034043;28;20178;-72
2022/12/27 13:11:38;;;;;;;6.03;3.00;;;;;;;;;;5026908;28;20178;-71
2022/12/27 13:14:21;;;;;;;4.87;3.10;;;;;;;;;;4957564;28;20184;-71
2022/12/27 13:16:54;;;;;;;6.00;3.53;;;;;;;;;;4952057;28;20256;-71
2022/12/27 13:19:22;;;;;;;5.03;3.30;;;;;;;;;;5004694;28;20209;-71
2022/12/27 13:22:06;;;;;;;8.30;3.23;;;;;;;;;;5032037;28;20179;-72
2022/12/27 13:24:44;;;;;;;6.20;3.10;;;;;;;;;;5032534;28;20209;-71
2022/12/27 13:27:19;;;;;;;5.37;2.43;;;;;;;;;;5021827;28;20643;-71
2022/12/27 13:29:56;;;;;;;7.20;3.20;;;;;;;;;;5031639;28;20173;-72
2022/12/27 13:32:24;;;;;;;7.33;3.03;;;;;;;;;;5018003;28;20186;-72
2022/12/27 13:35:06;;;;;;;11.63;3.20;;;;;;;;;;5018067;28;20225;-71
2022/12/27 13:37:37;;;;;;;9.97;3.90;;;;;;;;;;5036717;28;20252;-72
2022/12/27 13:40:06;;;;;;;10.23;3.90;;;;;;;;;;5026349;28;20179;-72
2022/12/27 13:42:37;;;;;;;6.43;3.80;;;;;;;;;;5032122;28;20182;-72
2022/12/27 13:45:25;;;;;;;8.90;4.43;;;;;;;;;;5024073;28;20253;-72
2022/12/27 13:47:56;;;;;;;7.97;4.50;;;;;;;;;;5003275;28;20590;-72
2022/12/27 13:50:40;;;;;;;7.97;3.90;;;;;;;;;;5024947;28;20276;-72
2022/12/27 13:53:24;;;;;;;9.63;3.73;;;;;;;;;;5025991;28;20648;-73
2022/12/27 13:56:08;;;;;;;10.00;3.83;;;;;;;;;;5026322;28;20194;-72
2022/12/27 13:58:56;;;;;;;14.23;3.87;;;;;;;;;;5032739;28;20522;-72
2022/12/27 14:01:24;;;;;;;7.67;3.90;;;;;;;;;;5002833;28;20208;-72
2022/12/27 14:03:52;;;;;;;5.63;3.10;;;;;;;;;;5031245;28;20182;-72
2022/12/27 14:06:26;;;;;;;8.30;3.70;;;;;;;;;;5032350;28;20213;-72
2022/12/27 14:09:17;;;;;;;8.63;3.43;;;;;;;;;;5023647;28;20174;-72
2022/12/27 14:11:57;;;;;;;7.47;4.40;;;;;;;;;;5006556;28;20281;-72
2022/12/27 14:14:24;;;;;;;8.30;3.70;;;;;;;;;;5045224;28;20213;-72
2022/12/27 14:17:08;;;;;;;16.27;5.57;;;;;;;;;;5031271;28;20226;-72
2022/12/27 14:19:46;;;;;;;8.63;3.30;;;;;;;;;;5026826;28;20209;-72
2022/12/27 14:22:29;;;;;;;6.07;3.47;;;;;;;;;;5029914;28;20257;-72
2022/12/27 14:24:54;;;;;;;5.60;3.27;;;;;;;;;;5030743;28;20587;-72
2022/12/27 14:27:38;;;;;;;8.63;3.87;;;;;;;;;;5025159;28;20202;-72
2022/12/27 14:30:09;;;;;;;7.27;3.83;;;;;;;;;;5028390;28;20206;-71
2022/12/27 14:32:43;;;;;;;6.43;3.40;;;;;;;;;;5027999;28;20182;-72
2022/12/27 14:35:20;;;;;;;5.47;3.37;;;;;;;;;;5015653;28;20621;-72
2022/12/27 14:37:45;;;;;;;5.43;3.40;;;;;;;;;;5020386;28;20244;-72
2022/12/27 14:40:11;;;;;;;7.37;3.77;;;;;;;;;;5019255;28;20234;-72
2022/12/27 14:42:39;;;;;;;9.27;4.40;;;;;;;;;;5018128;28;20182;-71
2022/12/27 14:45:22;;;;;;;6.13;3.53;;;;;;;;;;5020869;28;20222;-72
2022/12/27 14:47:48;;;;;;;7.63;3.93;;;;;;;;;;5018457;28;20186;-72
2022/12/27 14:50:23;;;;;;;7.50;3.67;;;;;;;;;;5019206;28;20662;-72
2022/12/27 14:53:00;;;;;;;5.63;3.57;;;;;;;;;;5019763;28;20178;-72
2022/12/27 14:55:31;;;;;;;5.20;3.50;;;;;;;;;;5020348;28;20660;-72
2022/12/27 14:58:03;;;;;;;5.87;3.30;;;;;;;;;;5032499;28;20668;-72
2022/12/27 15:00:32;;;;;;;6.07;3.43;;;;;;;;;;5021241;28;20285;-73
2022/12/27 15:02:57;;;;;;;8.77;4.00;;;;;;;;;;5017485;28;20193;-72
2022/12/27 15:05:55;;;;;;;9.47;3.43;;;;;;;;;;5018349;28;20198;-72
2022/12/27 15:08:39;;;;;;;6.23;3.23;;;;;;;;;;4975085;28;20656;-72
2022/12/27 15:11:05;;;;;;;6.90;3.83;;;;;;;;;;5016319;28;20520;-72
2022/12/27 15:13:49;;;;;;;9.17;4.27;;;;;;;;;;5017124;28;20197;-72
2022/12/27 15:16:18;;;;;;;6.73;3.70;;;;;;;;;;5015820;28;20225;-72
2022/12/27 15:18:49;;;;;;;6.63;3.83;;;;;;;;;;5019036;28;20182;-72
2022/12/27 15:21:19;;;;;;;8.37;3.87;;;;;;;;;;5019590;28;20189;-72
2022/12/27 15:23:47;;;;;;;6.50;4.37;;;;;;;;;;5013503;28;20288;-72
2022/12/27 15:26:18;;;;;;;7.30;4.80;;;;;;;;;;5020028;28;20210;-72
2022/12/27 15:28:49;;;;;;;10.13;4.23;;;;;;;;;;5019885;28;20213;-72
2022/12/27 15:31:21;;;;;;;7.63;4.23;;;;;;;;;;5017110;28;20185;-72
2022/12/27 15:33:46;;;;;;;10.93;4.23;;;;;;;;;;5017981;28;20170;-72
2022/12/27 15:36:13;;;;;;;6.67;4.33;;;;;;;;;;5018354;28;20264;-72
2022/12/27 15:38:39;;;;;;;7.97;4.23;;;;;;;;;;5017442;28;20198;-72
2022/12/27 15:41:08;;;;;;;7.73;4.77;;;;;;;;;;5017091;28;20540;-72
2022/12/27 15:43:56;;;;;;;7.90;4.77;;;;;;;;;;5021865;28;20205;-72
2022/12/27 15:46:40;;;;;;;11.27;5.20;;;;;;;;;;5009379;28;20214;-72
2022/12/27 15:49:15;;;;;;;8.07;4.87;;;;;;;;;;5018865;28;20209;-73
2022/12/27 15:51:46;;;;;;;8.13;5.57;;;;;;;;;;5033706;28;20305;-72
2022/12/27 15:54:11;;;;;;;8.73;4.87;;;;;;;;;;5018163;28;20267;-72
2022/12/27 15:56:48;;;;;;;11.17;5.60;;;;;;;;;;5019233;28;20281;-72
2022/12/27 15:59:32;;;;;;;8.17;4.30;;;;;;;;;;5022943;28;20642;-72
2022/12/27 16:02:09;;;;;;;10.97;4.87;;;;;;;;;;5016255;28;20185;-72
2022/12/27 16:04:46;;;;;;;7.47;3.73;;;;;;;;;;5029771;28;20354;-72
2022/12/27 16:07:30;;;;;;;12.60;6.13;;;;;;;;;;5030595;28;20209;-72
2022/12/27 16:09:55;;;;;;;10.37;3.37;;;;;;;;;;5031085;28;20174;-72
2022/12/27 16:12:34;;;;;;;14.73;6.90;;;;;;;;;;5029656;28;20192;-72
2022/12/27 16:15:18;;;;;;;8.07;4.20;;;;;;;;;;5030776;28;20210;-72
2022/12/27 16:17:53;;;;;;;9.47;4.20;;;;;;;;;;5030931;28;20493;-72
2022/12/27 16:20:19;;;;;;;7.47;3.77;;;;;;;;;;5030808;28;20245;-72
2022/12/27 16:22:47;;;;;;;9.00;4.20;;;;;;;;;;5028581;28;20185;-72
2022/12/27 16:25:24;;;;;;;6.83;3.73;;;;;;;;;;5029560;28;20692;-72
2022/12/27 16:27:54;;;;;;;6.37;3.50;;;;;;;;;;5027336;28;20205;-72
2022/12/27 16:30:38;;;;;;;6.27;3.33;;;;;;;;;;5030944;28;20206;-73